Time;durP1;ratioP1;P1;durP2;ratioP2;P2;SDS_P1;SDS_P2;PMS_P1;PMS_P2;Temp;Humidity;BMP_temperature;BMP_pressure;BME280_temperature;BME280_humidity;BME280_pressure;Samples;Min_cycle;Max_cycle;Signal;HPM_P1;HPM_P2
2021/12/03 00:00:42;;;;;;;3.15;1.60;;;21.80;48.00;;;;;;5024635;28;20033;-58
2021/12/03 00:03:09;;;;;;;3.35;1.55;;;21.70;47.90;;;;;;5024357;28;20033;-59
2021/12/03 00:05:35;;;;;;;3.63;1.70;;;21.70;47.90;;;;;;5023071;28;20034;-57
2021/12/03 00:08:01;;;;;;;3.50;1.45;;;21.70;47.90;;;;;;5024150;28;20131;-54
2021/12/03 00:10:27;;;;;;;2.70;1.50;;;21.70;48.00;;;;;;5026058;28;20096;-58
2021/12/03 00:12:54;;;;;;;3.45;1.40;;;21.70;48.00;;;;;;5024932;28;20073;-59
2021/12/03 00:15:20;;;;;;;2.95;1.50;;;21.60;47.90;;;;;;5024812;28;20109;-55
2021/12/03 00:17:46;;;;;;;3.20;1.60;;;21.60;47.90;;;;;;5026289;28;20029;-59
2021/12/03 00:20:14;;;;;;;3.63;1.70;;;21.60;48.00;;;;;;5026873;28;20051;-56
2021/12/03 00:22:42;;;;;;;2.55;1.30;;;21.60;48.00;;;;;;5025180;28;20033;-59
2021/12/03 00:25:08;;;;;;;2.47;1.38;;;21.50;48.50;;;;;;5024263;28;20036;-53
2021/12/03 00:27:34;;;;;;;3.20;1.35;;;21.50;48.00;;;;;;5025548;28;20167;-60
2021/12/03 00:30:05;;;;;;;3.15;1.52;;;21.50;48.00;;;;;;5022114;28;20579;-57
2021/12/03 00:32:31;;;;;;;2.78;1.40;;;21.50;48.00;;;;;;5023648;28;20426;-58
2021/12/03 00:34:59;;;;;;;2.97;1.40;;;21.50;48.00;;;;;;5024682;28;20048;-54
2021/12/03 00:37:25;;;;;;;3.38;1.50;;;21.50;48.10;;;;;;5026266;28;20082;-58
2021/12/03 00:39:51;;;;;;;3.95;1.83;;;21.50;48.10;;;;;;5023210;28;20033;-60
2021/12/03 00:42:18;;;;;;;3.25;1.50;;;21.40;48.00;;;;;;5022741;28;20037;-59
2021/12/03 00:44:50;;;;;;;2.80;1.55;;;21.40;48.10;;;;;;5029292;28;20182;-58
2021/12/03 00:47:16;;;;;;;2.60;1.42;;;21.40;48.10;;;;;;5025966;28;20036;-58
2021/12/03 00:49:42;;;;;;;3.40;1.48;;;21.40;48.10;;;;;;5020271;28;20040;-59
2021/12/03 00:52:08;;;;;;;2.95;1.30;;;21.30;48.10;;;;;;5023636;28;20025;-57
2021/12/03 00:54:34;;;;;;;2.70;1.30;;;21.40;48.10;;;;;;5022789;28;20022;-59
2021/12/03 00:57:00;;;;;;;3.17;1.40;;;21.30;48.10;;;;;;5023268;28;20073;-58
2021/12/03 00:59:25;;;;;;;2.25;1.20;;;21.30;48.20;;;;;;5027760;28;20061;-55
2021/12/03 01:01:51;;;;;;;3.25;1.35;;;21.30;48.20;;;;;;5022043;28;20050;-58
2021/12/03 01:04:17;;;;;;;2.95;1.48;;;21.30;48.20;;;;;;5022892;28;20040;-59
2021/12/03 01:06:43;;;;;;;3.13;1.40;;;21.20;48.20;;;;;;5027506;28;20037;-59
2021/12/03 01:09:08;;;;;;;3.38;1.35;;;21.20;48.20;;;;;;5022125;28;20041;-58
2021/12/03 01:11:34;;;;;;;3.08;1.30;;;21.20;48.20;;;;;;5024778;28;20049;-59
2021/12/03 01:14:00;;;;;;;2.72;1.40;;;21.20;48.30;;;;;;5026128;28;20107;-58
2021/12/03 01:16:27;;;;;;;3.20;1.40;;;21.20;48.30;;;;;;5025511;28;20041;-59
2021/12/03 01:18:53;;;;;;;2.50;1.30;;;21.20;48.30;;;;;;5025776;28;20041;-54
2021/12/03 01:21:19;;;;;;;2.28;1.30;;;21.10;48.30;;;;;;5024493;28;20834;-58
2021/12/03 01:23:46;;;;;;;2.17;1.30;;;21.10;48.30;;;;;;5023326;28;20106;-56
2021/12/03 01:26:13;;;;;;;2.15;1.20;;;21.10;48.30;;;;;;5019817;28;20075;-57
2021/12/03 01:28:39;;;;;;;2.83;1.30;;;21.10;48.30;;;;;;5027546;28;20042;-58
2021/12/03 01:31:07;;;;;;;2.00;1.13;;;21.10;48.40;;;;;;5023729;28;20037;-56
2021/12/03 01:33:33;;;;;;;2.35;1.20;;;21.10;48.40;;;;;;5021449;28;20030;-54
2021/12/03 01:35:59;;;;;;;3.35;1.42;;;21.00;48.40;;;;;;5023516;28;20489;-60
2021/12/03 01:38:25;;;;;;;2.70;1.30;;;21.00;48.40;;;;;;5024790;28;20029;-58
2021/12/03 01:40:50;;;;;;;2.13;1.20;;;21.00;48.40;;;;;;5022286;28;20113;-59
2021/12/03 01:43:23;;;;;;;2.03;1.10;;;21.00;48.40;;;;;;5022527;28;20109;-57
2021/12/03 01:45:51;;;;;;;1.98;0.90;;;21.00;48.40;;;;;;5027001;28;20604;-59
2021/12/03 01:48:17;;;;;;;2.25;1.10;;;21.00;48.50;;;;;;5025852;28;20033;-59
2021/12/03 01:50:45;;;;;;;1.63;1.02;;;20.90;48.40;;;;;;5022295;28;20110;-59
2021/12/03 01:53:12;;;;;;;2.13;1.15;;;20.90;48.40;;;;;;5023450;28;20025;-58
2021/12/03 01:55:39;;;;;;;2.00;1.10;;;20.90;48.40;;;;;;5023493;28;20393;-58
2021/12/03 01:58:06;;;;;;;2.58;1.23;;;20.90;48.50;;;;;;5026315;28;20075;-54
2021/12/03 02:00:37;;;;;;;2.72;1.25;;;20.90;48.50;;;;;;5023145;28;20056;-57
2021/12/03 02:03:05;;;;;;;1.90;1.10;;;20.90;48.50;;;;;;5029310;28;20377;-57
2021/12/03 02:05:31;;;;;;;1.75;1.20;;;20.90;48.60;;;;;;5025461;28;20044;-58
2021/12/03 02:07:57;;;;;;;2.38;1.20;;;20.90;48.60;;;;;;5026440;28;20103;-57
2021/12/03 02:10:23;;;;;;;1.52;1.10;;;20.80;48.50;;;;;;5026081;28;20033;-54
2021/12/03 02:12:50;;;;;;;2.00;1.20;;;20.80;48.60;;;;;;5025903;28;20018;-56
2021/12/03 02:15:16;;;;;;;1.85;1.00;;;20.80;48.60;;;;;;5028081;28;20080;-59
2021/12/03 02:17:42;;;;;;;2.63;1.08;;;20.80;49.10;;;;;;5027022;28;20450;-59
2021/12/03 02:20:11;;;;;;;2.30;1.27;;;20.80;48.70;;;;;;5034272;28;20041;-58
2021/12/03 02:22:37;;;;;;;2.15;1.20;;;20.80;48.60;;;;;;5026988;28;20047;-58
2021/12/03 02:25:06;;;;;;;2.47;0.95;;;20.70;48.60;;;;;;5028197;28;20438;-56
2021/12/03 02:27:32;;;;;;;1.52;1.00;;;20.70;48.70;;;;;;5024743;28;20034;-56
2021/12/03 02:29:57;;;;;;;1.77;1.20;;;20.70;48.70;;;;;;5034016;28;20048;-59
2021/12/03 02:32:23;;;;;;;1.88;1.08;;;20.70;48.70;;;;;;5026995;28;20036;-56
2021/12/03 02:34:48;;;;;;;2.35;1.25;;;20.70;48.70;;;;;;5032238;28;20029;-58
2021/12/03 02:37:14;;;;;;;1.80;1.10;;;20.70;48.70;;;;;;5028905;28;20025;-58
2021/12/03 02:39:40;;;;;;;2.17;1.13;;;20.70;48.80;;;;;;5025968;28;20033;-58
2021/12/03 02:42:06;;;;;;;1.85;1.00;;;20.70;48.80;;;;;;5025486;28;20061;-58
2021/12/03 02:44:32;;;;;;;2.28;1.15;;;20.70;48.80;;;;;;5029457;28;20079;-59
2021/12/03 02:46:57;;;;;;;2.05;1.30;;;20.70;48.80;;;;;;5030250;28;20053;-57
2021/12/03 02:49:23;;;;;;;1.65;1.00;;;20.60;48.80;;;;;;5028168;28;20084;-56
2021/12/03 02:51:49;;;;;;;1.88;1.02;;;20.60;48.80;;;;;;5027810;28;20737;-56
2021/12/03 02:54:14;;;;;;;2.00;1.10;;;20.60;48.80;;;;;;5025730;28;20453;-57
2021/12/03 02:56:40;;;;;;;1.50;0.90;;;20.60;48.80;;;;;;5024621;28;20095;-58
2021/12/03 02:59:05;;;;;;;2.25;1.20;;;20.60;48.80;;;;;;5024940;28;20064;-59
2021/12/03 03:01:32;;;;;;;1.60;1.00;;;20.60;48.80;;;;;;5025796;28;20049;-58
2021/12/03 03:03:58;;;;;;;1.88;1.10;;;20.60;48.80;;;;;;5025446;28;20049;-58
2021/12/03 03:06:24;;;;;;;1.77;1.00;;;20.60;48.90;;;;;;5023808;28;20669;-55
2021/12/03 03:08:49;;;;;;;1.70;1.00;;;20.50;48.80;;;;;;5029452;28;20029;-57
2021/12/03 03:11:21;;;;;;;1.80;1.08;;;20.50;48.90;;;;;;5024428;28;20030;-58
2021/12/03 03:13:47;;;;;;;2.17;0.90;;;20.50;48.90;;;;;;5028521;28;20018;-58
2021/12/03 03:16:14;;;;;;;1.90;1.00;;;20.50;48.90;;;;;;5025917;28;20064;-56
2021/12/03 03:18:40;;;;;;;2.72;1.00;;;20.50;48.90;;;;;;5018947;28;20030;-58
2021/12/03 03:21:06;;;;;;;2.03;1.08;;;20.50;49.00;;;;;;5028341;28;20079;-56
2021/12/03 03:23:33;;;;;;;1.83;1.20;;;20.50;49.00;;;;;;5029489;28;20037;-57
2021/12/03 03:25:59;;;;;;;1.67;1.00;;;20.50;49.00;;;;;;5022530;28;20018;-56
2021/12/03 03:28:25;;;;;;;1.85;1.00;;;20.50;49.00;;;;;;5027828;28;20124;-58
2021/12/03 03:30:53;;;;;;;1.50;0.88;;;20.50;49.00;;;;;;5024529;28;20125;-58
2021/12/03 03:33:20;;;;;;;2.03;1.02;;;20.50;49.00;;;;;;5025740;28;20052;-56
2021/12/03 03:35:46;;;;;;;2.13;1.00;;;20.40;49.00;;;;;;5028883;28;20332;-52
2021/12/03 03:38:12;;;;;;;1.88;0.82;;;20.40;49.50;;;;;;5026993;28;20049;-58
2021/12/03 03:40:41;;;;;;;1.30;0.90;;;20.40;49.00;;;;;;5025262;28;20056;-57
2021/12/03 03:43:07;;;;;;;1.48;1.00;;;20.40;49.00;;;;;;5023444;28;20045;-58
2021/12/03 03:45:34;;;;;;;1.58;0.90;;;20.40;49.00;;;;;;5026714;28;20061;-58
2021/12/03 03:48:00;;;;;;;1.90;1.00;;;20.40;49.00;;;;;;5028649;28;20033;-57
2021/12/03 03:50:26;;;;;;;1.83;1.00;;;20.40;49.00;;;;;;5026651;28;20024;-58
2021/12/03 03:52:54;;;;;;;2.08;0.90;;;20.40;49.00;;;;;;5026642;28;20049;-59
2021/12/03 03:55:21;;;;;;;1.60;0.88;;;20.40;49.00;;;;;;5020382;28;20375;-57
2021/12/03 03:57:49;;;;;;;1.52;0.88;;;20.40;49.00;;;;;;5026559;28;20031;-57
2021/12/03 04:00:19;;;;;;;1.77;1.00;;;20.40;49.10;;;;;;5023429;28;20480;-58
2021/12/03 04:02:45;;;;;;;1.45;0.85;;;20.40;49.10;;;;;;5025424;28;20188;-57
2021/12/03 04:05:11;;;;;;;1.00;0.80;;;20.40;49.10;;;;;;5025520;28;20738;-59
2021/12/03 04:07:37;;;;;;;1.40;0.80;;;20.40;49.20;;;;;;5025009;28;20033;-57
2021/12/03 04:10:04;;;;;;;2.13;1.00;;;20.40;49.10;;;;;;5024805;28;20116;-58
2021/12/03 04:12:30;;;;;;;1.20;0.88;;;20.40;49.10;;;;;;5024953;28;20060;-57
2021/12/03 04:14:56;;;;;;;1.55;0.90;;;20.40;49.20;;;;;;5025788;28;20025;-57
2021/12/03 04:17:22;;;;;;;1.30;0.77;;;20.40;49.20;;;;;;5025969;28;20065;-59
2021/12/03 04:19:47;;;;;;;1.65;1.00;;;20.30;49.10;;;;;;5021561;28;20088;-59
2021/12/03 04:22:15;;;;;;;1.52;0.90;;;20.30;49.20;;;;;;5023257;28;20121;-58
2021/12/03 04:24:41;;;;;;;1.75;0.95;;;20.30;49.10;;;;;;5025797;28;20115;-57
2021/12/03 04:27:08;;;;;;;2.40;0.98;;;20.30;49.70;;;;;;5019771;28;20101;-58
2021/12/03 04:29:33;;;;;;;1.58;0.90;;;20.30;49.10;;;;;;5025804;28;20037;-53
2021/12/03 04:31:59;;;;;;;1.88;1.00;;;20.30;49.20;;;;;;5026857;28;20096;-59
2021/12/03 04:34:25;;;;;;;1.65;1.00;;;20.30;49.10;;;;;;5020373;28;20021;-60
2021/12/03 04:36:51;;;;;;;1.50;0.90;;;20.40;49.20;;;;;;5024681;28;20065;-57
2021/12/03 04:39:17;;;;;;;1.35;0.80;;;20.30;49.60;;;;;;5024311;28;20224;-56
2021/12/03 04:41:43;;;;;;;1.50;0.80;;;20.30;49.10;;;;;;5024722;28;20532;-59
2021/12/03 04:44:08;;;;;;;0.77;0.60;;;20.30;49.10;;;;;;5023873;28;20037;-59
2021/12/03 04:46:34;;;;;;;0.93;0.70;;;20.30;49.20;;;;;;5026068;28;20105;-58
2021/12/03 04:49:00;;;;;;;1.17;0.80;;;20.30;49.20;;;;;;5028079;28;20036;-59
2021/12/03 04:51:26;;;;;;;1.58;0.90;;;20.30;49.20;;;;;;5023580;28;20032;-59
2021/12/03 04:53:52;;;;;;;1.27;0.80;;;20.30;49.20;;;;;;5018718;28;20034;-59
2021/12/03 04:56:17;;;;;;;2.13;0.80;;;20.30;49.20;;;;;;5021753;28;20030;-59
2021/12/03 04:58:43;;;;;;;1.58;0.90;;;20.30;49.30;;;;;;5026756;28;20025;-58
2021/12/03 05:01:09;;;;;;;1.75;0.90;;;20.30;49.30;;;;;;5021354;28;20041;-55
2021/12/03 05:03:37;;;;;;;1.23;0.80;;;20.30;49.30;;;;;;5022811;28;20036;-58
2021/12/03 05:06:03;;;;;;;1.40;0.80;;;20.30;49.80;;;;;;5025096;28;20041;-58
2021/12/03 05:08:30;;;;;;;1.35;0.80;;;20.30;49.40;;;;;;5028224;28;20476;-57
2021/12/03 05:10:57;;;;;;;1.15;0.70;;;20.30;49.40;;;;;;5021732;28;20030;-58
2021/12/03 05:13:29;;;;;;;1.08;0.70;;;20.30;49.40;;;;;;5017002;28;20038;-58
2021/12/03 05:15:54;;;;;;;2.13;0.90;;;20.20;49.40;;;;;;5021891;28;20029;-58
2021/12/03 05:18:23;;;;;;;1.10;0.70;;;20.20;49.40;;;;;;5022318;28;20097;-54
2021/12/03 05:20:50;;;;;;;1.80;0.90;;;20.20;49.40;;;;;;5025647;28;20049;-58
2021/12/03 05:23:17;;;;;;;1.30;0.80;;;20.20;49.40;;;;;;5018504;28;20783;-58
2021/12/03 05:25:43;;;;;;;1.05;0.70;;;20.20;49.50;;;;;;5017323;28;20829;-57
2021/12/03 05:28:09;;;;;;;1.02;0.73;;;20.20;49.50;;;;;;5021111;28;20040;-58
2021/12/03 05:30:35;;;;;;;1.00;0.70;;;20.20;50.10;;;;;;5021456;28;20135;-57
2021/12/03 05:33:01;;;;;;;0.98;0.68;;;20.20;49.50;;;;;;5023545;28;20040;-56
2021/12/03 05:35:27;;;;;;;1.70;0.70;;;20.20;49.50;;;;;;5024664;28;20033;-59
2021/12/03 05:37:53;;;;;;;1.98;0.80;;;20.20;49.50;;;;;;5026998;28;20025;-57
2021/12/03 05:40:20;;;;;;;1.92;0.80;;;20.20;49.50;;;;;;5025006;28;20100;-59
2021/12/03 05:42:46;;;;;;;1.60;0.80;;;20.20;49.60;;;;;;5028272;28;20041;-56
2021/12/03 05:45:15;;;;;;;1.67;0.80;;;20.20;49.60;;;;;;5031106;28;20117;-59
2021/12/03 05:47:40;;;;;;;1.50;0.82;;;20.20;49.60;;;;;;5025873;28;20627;-59
2021/12/03 05:50:09;;;;;;;0.93;0.70;;;20.20;49.60;;;;;;5026019;28;20033;-54
2021/12/03 05:52:35;;;;;;;3.00;0.80;;;20.20;49.60;;;;;;5031450;28;20029;-58
2021/12/03 05:55:01;;;;;;;1.13;0.73;;;20.20;49.60;;;;;;5027340;28;20494;-59
2021/12/03 05:57:27;;;;;;;1.13;0.82;;;20.20;49.60;;;;;;5028058;28;20575;-58
2021/12/03 05:59:52;;;;;;;1.90;1.00;;;20.20;49.60;;;;;;5025651;28;20053;-59
2021/12/03 06:02:18;;;;;;;2.13;0.75;;;20.10;49.60;;;;;;5022227;28;20034;-57
2021/12/03 06:04:43;;;;;;;2.53;0.90;;;20.20;49.70;;;;;;5026358;28;20037;-59
2021/12/03 06:07:09;;;;;;;1.90;1.00;;;20.10;49.60;;;;;;5025064;28;20460;-57
2021/12/03 06:09:34;;;;;;;2.10;0.98;;;20.10;49.60;;;;;;5024201;28;20036;-60
2021/12/03 06:12:01;;;;;;;1.88;1.00;;;20.10;50.20;;;;;;5029319;28;20029;-59
2021/12/03 06:14:28;;;;;;;1.40;0.80;;;20.10;49.60;;;;;;5025786;28;20349;-59
2021/12/03 06:16:54;;;;;;;2.10;1.10;;;20.10;49.70;;;;;;5026189;28;20113;-59
2021/12/03 06:19:20;;;;;;;2.50;1.20;;;20.10;49.70;;;;;;5027848;28;20037;-59
2021/12/03 06:21:46;;;;;;;2.05;1.20;;;20.10;50.20;;;;;;5028636;28;20052;-58
2021/12/03 06:24:11;;;;;;;2.53;1.20;;;20.10;49.70;;;;;;5028127;28;20044;-58
2021/12/03 06:26:37;;;;;;;2.67;1.13;;;20.10;49.70;;;;;;5027556;28;20114;-57
2021/12/03 06:29:03;;;;;;;2.03;1.10;;;20.10;49.70;;;;;;5026980;28;20080;-60
2021/12/03 06:31:28;;;;;;;2.72;1.60;;;20.10;49.70;;;;;;5019742;28;20033;-58
2021/12/03 06:33:54;;;;;;;3.10;1.45;;;20.10;50.20;;;;;;5022791;28;20108;-58
2021/12/03 06:36:20;;;;;;;2.38;1.20;;;20.50;50.40;;;;;;5027530;28;20029;-59
2021/12/03 06:38:46;;;;;;;2.58;1.10;;;21.10;49.70;;;;;;5025604;28;20719;-59
2021/12/03 06:41:11;;;;;;;2.35;1.10;;;21.70;49.00;;;;;;5024163;28;20043;-58
2021/12/03 06:43:37;;;;;;;1.80;1.02;;;22.20;48.20;;;;;;5026774;28;20086;-58
2021/12/03 06:46:03;;;;;;;2.00;1.20;;;22.60;47.60;;;;;;5028840;28;20055;-59
2021/12/03 06:48:29;;;;;;;1.70;0.90;;;23.10;47.20;;;;;;5022647;28;20498;-59
2021/12/03 06:50:55;;;;;;;2.03;0.95;;;23.40;46.80;;;;;;5024332;28;20091;-56
2021/12/03 06:53:24;;;;;;;2.17;1.40;;;23.80;46.40;;;;;;5024987;28;20036;-59
2021/12/03 06:56:03;;;;;;;1.90;1.20;;;24.10;46.10;;;;;;5021048;28;20052;-58
2021/12/03 06:58:29;;;;;;;2.35;1.25;;;24.40;45.80;;;;;;5027273;28;20561;-59
2021/12/03 07:00:56;;;;;;;1.90;1.15;;;24.70;45.50;;;;;;5025160;28;20099;-58
2021/12/03 07:03:22;;;;;;;2.08;1.20;;;25.00;45.20;;;;;;5022981;28;20724;-58
2021/12/03 07:05:48;;;;;;;2.20;1.20;;;25.20;45.00;;;;;;5025461;28;20030;-57
2021/12/03 07:08:14;;;;;;;2.20;1.10;;;25.20;45.30;;;;;;5028421;28;20076;-61
2021/12/03 07:10:41;;;;;;;1.73;1.05;;;25.00;45.80;;;;;;5020798;28;20026;-57
2021/12/03 07:13:07;;;;;;;1.38;1.00;;;24.90;46.30;;;;;;5025676;28;20032;-58
2021/12/03 07:15:34;;;;;;;2.63;1.10;;;24.80;46.50;;;;;;5027226;28;20411;-57
2021/12/03 07:18:00;;;;;;;1.08;0.75;;;24.80;46.70;;;;;;5026315;28;20026;-58
2021/12/03 07:20:27;;;;;;;1.30;0.82;;;24.80;46.90;;;;;;5022357;28;20029;-58
2021/12/03 07:22:54;;;;;;;1.10;0.80;;;24.60;47.20;;;;;;5027768;28;20147;-58
2021/12/03 07:25:21;;;;;;;2.08;1.00;;;24.40;47.60;;;;;;5025415;28;20029;-59
2021/12/03 07:27:47;;;;;;;1.23;0.73;;;24.30;47.80;;;;;;5023786;28;20073;-59
2021/12/03 07:30:15;;;;;;;1.25;0.70;;;24.20;48.10;;;;;;5022738;28;20488;-59
2021/12/03 07:32:41;;;;;;;2.60;0.90;;;24.10;48.20;;;;;;5024977;28;20048;-59
2021/12/03 07:35:08;;;;;;;1.63;1.00;;;24.00;48.30;;;;;;5022494;28;20025;-58
2021/12/03 07:37:34;;;;;;;1.42;0.95;;;24.00;48.40;;;;;;5025218;28;20374;-58
2021/12/03 07:40:05;;;;;;;1.98;1.00;;;23.90;48.50;;;;;;5018919;28;20037;-59
2021/12/03 07:42:32;;;;;;;1.52;0.90;;;23.90;48.60;;;;;;5028135;28;20032;-58
2021/12/03 07:44:58;;;;;;;2.17;0.98;;;23.90;48.60;;;;;;5024990;28;20517;-58
2021/12/03 07:47:24;;;;;;;1.17;1.00;;;23.90;48.70;;;;;;5022165;28;20026;-58
2021/12/03 07:49:51;;;;;;;1.77;1.00;;;23.90;48.60;;;;;;5026819;28;20045;-57
2021/12/03 07:52:19;;;;;;;1.80;1.00;;;23.90;48.70;;;;;;5027325;28;20056;-56
2021/12/03 07:54:45;;;;;;;1.73;1.00;;;23.90;48.70;;;;;;5019578;28;20025;-58
2021/12/03 07:57:11;;;;;;;1.52;0.90;;;23.90;48.70;;;;;;5024387;28;20025;-58
2021/12/03 07:59:37;;;;;;;1.92;0.90;;;23.80;48.70;;;;;;5028030;28;20104;-59
2021/12/03 08:02:03;;;;;;;1.02;0.70;;;23.80;48.60;;;;;;5023078;28;20443;-59
2021/12/03 08:04:29;;;;;;;1.65;0.98;;;23.80;48.60;;;;;;5024068;28;20098;-58
2021/12/03 08:06:54;;;;;;;1.15;0.80;;;23.80;49.00;;;;;;5025715;28;20029;-57
2021/12/03 08:09:22;;;;;;;1.75;0.90;;;23.80;48.70;;;;;;5024298;28;20029;-59
2021/12/03 08:11:47;;;;;;;1.33;0.90;;;23.80;48.70;;;;;;5028538;28;20061;-59
2021/12/03 08:14:13;;;;;;;2.30;0.90;;;23.80;48.90;;;;;;5026291;28;20033;-58
2021/12/03 08:16:39;;;;;;;1.10;0.70;;;23.80;49.10;;;;;;5025716;28;20036;-58
2021/12/03 08:19:05;;;;;;;1.17;0.80;;;23.80;49.00;;;;;;5026359;28;20051;-58
2021/12/03 08:21:31;;;;;;;2.38;0.93;;;23.80;49.30;;;;;;5020672;28;20079;-58
2021/12/03 08:23:57;;;;;;;1.58;0.80;;;23.80;49.20;;;;;;5024036;28;20096;-58
2021/12/03 08:26:23;;;;;;;1.45;0.90;;;23.80;49.60;;;;;;5024076;28;20029;-57
2021/12/03 08:28:48;;;;;;;1.80;0.80;;;23.90;49.80;;;;;;5027841;28;20668;-57
2021/12/03 08:31:14;;;;;;;1.58;0.90;;;23.90;49.70;;;;;;5024722;28;20025;-55
2021/12/03 08:33:41;;;;;;;1.85;0.80;;;23.80;49.70;;;;;;5024255;28;20029;-59
2021/12/03 08:36:08;;;;;;;1.58;0.90;;;23.90;50.10;;;;;;5024060;28;20029;-59
2021/12/03 08:38:33;;;;;;;1.17;0.85;;;23.90;49.90;;;;;;5024327;28;20032;-57
2021/12/03 08:40:59;;;;;;;1.30;0.82;;;23.90;49.60;;;;;;5024935;28;20029;-60
2021/12/03 08:43:25;;;;;;;1.25;0.80;;;23.90;49.40;;;;;;5023866;28;20389;-58
2021/12/03 08:45:54;;;;;;;1.63;0.80;;;23.90;49.50;;;;;;5026171;28;20025;-57
2021/12/03 08:48:22;;;;;;;1.23;0.77;;;23.90;49.80;;;;;;5025551;28;20101;-61
2021/12/03 08:56:20;;;;;;;2.03;1.00;;;23.90;49.40;;;;;;5018261;28;20037;-59
2021/12/03 08:58:46;;;;;;;1.60;0.90;;;23.90;49.60;;;;;;5023641;28;20047;-59
2021/12/03 09:01:13;;;;;;;1.25;0.90;;;23.90;49.10;;;;;;5020302;28;20551;-60
2021/12/03 09:03:40;;;;;;;0.95;0.70;;;23.90;49.10;;;;;;5022147;28;20025;-55
2021/12/03 09:06:05;;;;;;;1.08;0.77;;;23.90;49.70;;;;;;5022602;28;20030;-61
2021/12/03 09:08:31;;;;;;;1.70;0.80;;;23.90;50.00;;;;;;5023028;28;20025;-61
2021/12/03 09:10:57;;;;;;;1.25;0.80;;;23.90;50.00;;;;;;5019410;28;20585;-59
2021/12/03 09:13:23;;;;;;;1.25;0.70;;;23.90;49.70;;;;;;5026972;28;20081;-54
2021/12/03 09:15:55;;;;;;;1.52;0.80;;;23.90;49.70;;;;;;5022774;28;20499;-60
2021/12/03 09:18:27;;;;;;;1.27;0.75;;;23.90;50.10;;;;;;5023763;28;20025;-58
2021/12/03 09:21:08;;;;;;;1.27;0.70;;;23.90;49.80;;;;;;5017567;28;20041;-59
2021/12/03 09:26:09;;;;;;;1.20;0.70;;;23.90;49.80;;;;;;5022166;28;20108;-59
2021/12/03 09:28:36;;;;;;;2.03;1.00;;;23.90;50.50;;;;;;5026035;28;20109;-59
2021/12/03 09:31:03;;;;;;;2.15;1.10;;;23.90;48.10;;;;;;5022571;28;20075;-55
2021/12/03 09:33:32;;;;;;;2.08;1.00;;;23.90;45.60;;;;;;5024045;28;20037;-58
2021/12/03 09:36:01;;;;;;;1.98;1.08;;;23.80;45.50;;;;;;5027199;28;20792;-60
2021/12/03 09:38:31;;;;;;;;;;;23.80;45.30;;;;;;5023234;28;20032;-58
2021/12/03 09:41:05;;;;;;;1.98;1.10;;;23.70;45.30;;;;;;5021867;28;19913;-59
2021/12/03 09:43:32;;;;;;;2.40;1.20;;;23.70;45.00;;;;;;5020057;28;20079;-59
2021/12/03 09:46:10;;;;;;;2.55;1.40;;;23.70;44.80;;;;;;5023344;28;20836;-59
2021/12/03 09:49:15;;;;;;;2.45;1.30;;;23.60;44.90;;;;;;5021014;28;20500;-58
2021/12/03 09:51:28;;;;;;;1.98;1.08;;;23.60;45.10;;;;;;5024202;28;20050;-58
2021/12/03 09:54:20;;;;;;;2.13;1.10;;;23.60;45.40;;;;;;5020876;28;20805;-57
2021/12/03 09:56:46;;;;;;;2.42;1.10;;;23.50;45.40;;;;;;5021052;28;20470;-57
2021/12/03 10:12:24;;;;;;;2.00;1.00;;;23.50;47.00;;;;;;5023841;28;20153;-59
2021/12/03 10:15:01;;;;;;;2.50;0.90;;;23.50;47.10;;;;;;5023025;28;20064;-59
2021/12/03 10:54:10;;;;;;;2.50;1.20;;;23.30;45.30;;;;;;5018891;28;20029;-60
2021/12/03 11:02:21;;;;;;;1.80;1.00;;;23.20;45.50;;;;;;5021651;28;20211;-60
2021/12/03 11:37:34;;;;;;;2.28;1.25;;;22.90;46.00;;;;;;5025610;28;20204;-61
2021/12/03 11:39:50;;;;;;;2.13;1.20;;;22.90;46.00;;;;;;5024956;28;20049;-59
2021/12/03 12:08:43;;;;;;;;;;;22.70;46.40;;;;;;5021132;28;20029;-60
2021/12/03 12:27:30;;;;;;;2.87;1.20;;;22.40;46.60;;;;;;5023985;28;20543;-59
2021/12/03 12:44:49;;;;;;;3.67;2.05;;;22.30;46.80;;;;;;5023792;28;20037;-61
2021/12/03 14:21:15;;;;;;;5.05;2.53;;;21.60;48.00;;;;;;5021840;28;20043;-61
2021/12/03 14:52:13;;;;;;;4.35;2.10;;;21.40;48.20;;;;;;5022574;28;20029;-59
2021/12/03 14:57:10;;;;;;;4.72;2.30;;;21.40;48.30;;;;;;5018800;28;20025;-60
2021/12/03 14:59:39;;;;;;;4.88;2.40;;;21.40;48.80;;;;;;5023294;28;20040;-60
2021/12/03 15:02:21;;;;;;;4.88;2.20;;;21.40;48.30;;;;;;5020393;28;20051;-60
2021/12/03 15:07:52;;;;;;;4.13;2.17;;;21.40;48.30;;;;;;5014687;28;20042;-60
2021/12/03 15:10:27;;;;;;;3.95;2.05;;;21.30;48.30;;;;;;5022270;28;20033;-62
2021/12/03 15:24:26;;;;;;;4.25;2.15;;;21.30;48.40;;;;;;5018494;28;20128;-60
2021/12/03 15:31:54;;;;;;;4.22;2.00;;;21.30;48.50;;;;;;5021715;28;20288;-59
2021/12/03 15:39:30;;;;;;;4.10;1.80;;;21.30;48.60;;;;;;5022575;28;20064;-63
2021/12/03 16:08:25;;;;;;;5.80;1.98;;;21.40;48.90;;;;;;5019747;28;20039;-60
2021/12/03 16:13:42;;;;;;;4.68;1.88;;;21.40;48.90;;;;;;5016878;28;20019;-60
2021/12/03 16:43:34;;;;;;;4.28;2.30;;;21.50;49.00;;;;;;5027227;28;20813;-59
2021/12/03 16:53:33;;;;;;;4.25;1.90;;;21.70;48.60;;;;;;5023271;28;20025;-59
2021/12/03 16:56:11;;;;;;;4.97;2.10;;;21.70;48.60;;;;;;5020338;28;20044;-62
2021/12/03 16:58:38;;;;;;;4.68;2.00;;;21.70;48.60;;;;;;5029892;28;20025;-60
2021/12/03 17:01:08;;;;;;;4.00;2.10;;;21.70;48.60;;;;;;5022910;28;20048;-60
2021/12/03 17:14:47;;;;;;;5.15;2.10;;;21.70;48.30;;;;;;5022777;28;20155;-60
2021/12/03 17:54:59;;;;;;;6.30;3.53;;;21.90;48.00;;;;;;5032174;28;20036;-60
2021/12/03 17:57:41;;;;;;;7.22;3.30;;;22.00;47.90;;;;;;5030116;28;20052;-59
2021/12/03 18:00:14;;;;;;;6.40;3.40;;;22.10;47.80;;;;;;5033931;28;20040;-60
2021/12/03 18:02:46;;;;;;;8.77;4.00;;;22.20;47.80;;;;;;5027907;28;20810;-62
2021/12/03 18:08:08;;;;;;;9.73;3.70;;;22.40;47.50;;;;;;5029607;28;20033;-59
2021/12/03 18:55:36;;;;;;;8.02;3.63;;;23.30;46.10;;;;;;5023816;28;20061;-58
2021/12/03 18:58:05;;;;;;;7.70;3.42;;;23.30;46.10;;;;;;5023058;28;20036;-61
2021/12/03 19:00:34;;;;;;;10.00;3.72;;;23.20;46.10;;;;;;5022836;28;20029;-59
2021/12/03 19:03:04;;;;;;;6.97;3.30;;;23.20;46.00;;;;;;5032083;28;20025;-58
2021/12/03 19:10:50;;;;;;;8.48;2.83;;;23.20;46.10;;;;;;5028775;28;20098;-60
2021/12/03 19:13:22;;;;;;;6.80;3.60;;;23.20;46.10;;;;;;5029760;28;20126;-60
2021/12/03 19:15:50;;;;;;;7.20;3.25;;;23.20;46.10;;;;;;5022632;28;20036;-59
2021/12/03 19:18:19;;;;;;;7.60;3.65;;;23.20;46.10;;;;;;5025726;28;20207;-60
2021/12/03 19:20:45;;;;;;;6.55;3.45;;;23.20;46.10;;;;;;5023197;28;20029;-62
2021/12/03 19:23:10;;;;;;;7.40;3.20;;;23.20;46.10;;;;;;5024667;28;20052;-60
2021/12/03 19:25:37;;;;;;;6.22;3.08;;;23.20;46.10;;;;;;5023349;28;20032;-61
2021/12/03 19:28:02;;;;;;;5.85;3.10;;;23.20;46.00;;;;;;5022206;28;20029;-60
2021/12/03 19:30:28;;;;;;;6.55;3.22;;;23.20;46.10;;;;;;5023931;28;20775;-60
2021/12/03 19:32:54;;;;;;;6.20;2.85;;;23.10;46.00;;;;;;5029553;28;20017;-60
2021/12/03 19:35:20;;;;;;;7.45;3.03;;;23.10;46.10;;;;;;5029428;28;20059;-60
2021/12/03 19:37:49;;;;;;;7.25;2.80;;;23.10;46.10;;;;;;5023231;28;20025;-57
2021/12/03 19:40:15;;;;;;;5.20;3.00;;;23.10;46.10;;;;;;5023441;28;20037;-59
2021/12/03 19:45:10;;;;;;;5.80;3.05;;;23.10;46.20;;;;;;5023137;28;20052;-61
2021/12/03 19:47:50;;;;;;;4.97;2.67;;;23.10;46.20;;;;;;5025181;28;20050;-59
2021/12/03 19:53:01;;;;;;;6.95;3.35;;;23.10;46.30;;;;;;5021527;28;20060;-60
2021/12/03 19:55:27;;;;;;;4.78;2.70;;;23.10;46.20;;;;;;5024836;28;20044;-60
2021/12/03 19:57:53;;;;;;;5.70;2.67;;;23.10;46.20;;;;;;5021320;28;20029;-60
2021/12/03 20:00:19;;;;;;;4.13;2.55;;;23.10;46.30;;;;;;5026964;28;21450;-59
2021/12/03 20:02:45;;;;;;;6.43;3.17;;;23.10;46.30;;;;;;5023391;28;20036;-59
2021/12/03 20:05:11;;;;;;;5.55;3.00;;;23.10;46.20;;;;;;5027721;28;20037;-60
2021/12/03 20:07:38;;;;;;;8.20;3.38;;;23.10;46.30;;;;;;5020284;28;20033;-61
2021/12/03 20:10:09;;;;;;;4.70;2.80;;;23.10;46.30;;;;;;5021758;28;20113;-59
2021/12/03 20:12:35;;;;;;;4.68;2.42;;;23.10;46.20;;;;;;5026703;28;20028;-60
2021/12/03 20:15:03;;;;;;;6.63;2.95;;;23.00;46.20;;;;;;5027131;28;20032;-61
2021/12/03 20:17:32;;;;;;;6.57;2.50;;;23.00;46.20;;;;;;5024413;28;20036;-60
2021/12/03 20:20:00;;;;;;;;;;;23.00;46.30;;;;;;5028254;28;20108;-59
2021/12/03 20:25:18;;;;;;;5.32;2.67;;;23.00;46.40;;;;;;5022928;28;20029;-61
2021/12/03 20:27:46;;;;;;;6.93;2.78;;;23.00;46.40;;;;;;5023667;28;20091;-60
2021/12/03 20:30:22;;;;;;;5.68;2.65;;;23.00;46.30;;;;;;5019918;28;20695;-60
2021/12/03 20:33:05;;;;;;;4.68;2.72;;;23.00;46.90;;;;;;5020176;28;20033;-60
2021/12/03 20:38:12;;;;;;;5.87;2.63;;;23.00;46.40;;;;;;5011747;28;20769;-59
2021/12/03 20:40:38;;;;;;;6.20;2.42;;;23.00;46.40;;;;;;5012729;28;20646;-60
2021/12/03 20:51:18;;;;;;;4.78;2.53;;;22.90;46.50;;;;;;5016882;28;20033;-60
2021/12/03 20:54:15;;;;;;;3.75;2.08;;;22.90;46.50;;;;;;5012420;28;20156;-61
2021/12/03 20:59:39;;;;;;;4.18;2.45;;;22.80;46.60;;;;;;5013100;28;20065;-61